Time;durP1;ratioP1;P1;durP2;ratioP2;P2;SDS_P1;SDS_P2;PMS_P1;PMS_P2;Temp;Humidity;BMP_temperature;BMP_pressure;BME280_temperature;BME280_humidity;BME280_pressure;Samples;Min_cycle;Max_cycle;Signal;HPM_P1;HPM_P2
2021/03/19 00:01:50;;;;;;;16.43;3.20;;;4.40;99.90;;;;;;5053358;28;20298;-82
2021/03/19 00:04:17;;;;;;;8.70;3.07;;;4.40;99.90;;;;;;5056211;28;20201;-81
2021/03/19 00:06:44;;;;;;;10.73;2.80;;;4.40;99.90;;;;;;5056933;28;20196;-79
2021/03/19 00:09:11;;;;;;;9.17;2.60;;;4.40;99.90;;;;;;5056682;28;20204;-80
2021/03/19 00:11:39;;;;;;;9.70;2.43;;;4.30;99.90;;;;;;5057162;28;20206;-83
2021/03/19 00:14:09;;;;;;;13.27;2.63;;;4.30;99.90;;;;;;5056736;28;20209;-81
2021/03/19 00:16:36;;;;;;;9.07;2.70;;;4.20;99.90;;;;;;5056546;28;20317;-80
2021/03/19 00:19:03;;;;;;;14.63;3.70;;;4.30;99.90;;;;;;5056748;28;20308;-81
2021/03/19 00:21:30;;;;;;;9.33;2.77;;;4.20;99.90;;;;;;5056765;28;20733;-81
2021/03/19 00:23:57;;;;;;;9.73;2.53;;;4.20;99.90;;;;;;5048607;28;20569;-80
2021/03/19 00:26:24;;;;;;;17.63;2.97;;;4.20;99.90;;;;;;5056711;28;20291;-81
2021/03/19 00:28:51;;;;;;;19.33;2.67;;;4.10;99.90;;;;;;5056332;28;20210;-80
2021/03/19 00:31:18;;;;;;;15.17;2.63;;;4.10;99.90;;;;;;5056234;28;20226;-79
2021/03/19 00:33:45;;;;;;;13.13;2.67;;;4.00;99.90;;;;;;5056702;28;20202;-81
2021/03/19 00:36:11;;;;;;;13.53;2.40;;;3.90;99.90;;;;;;5056009;28;20218;-81
2021/03/19 00:38:38;;;;;;;12.53;3.03;;;3.90;99.90;;;;;;5056431;28;20204;-80
2021/03/19 00:41:04;;;;;;;12.40;2.63;;;3.90;99.90;;;;;;5056431;28;20654;-81
2021/03/19 00:43:31;;;;;;;11.07;3.07;;;3.90;99.90;;;;;;5056219;28;20283;-80
2021/03/19 00:45:58;;;;;;;13.50;2.80;;;3.90;99.90;;;;;;5060284;28;20308;-80
2021/03/19 00:48:24;;;;;;;13.13;2.90;;;3.80;99.90;;;;;;5060100;28;20202;-79
2021/03/19 00:50:52;;;;;;;15.53;2.40;;;3.80;99.90;;;;;;5055978;28;20655;-80
2021/03/19 00:53:19;;;;;;;11.17;2.90;;;3.80;99.90;;;;;;5056649;28;20210;-79
2021/03/19 00:55:46;;;;;;;15.70;2.77;;;3.90;99.90;;;;;;5056320;28;20228;-80
2021/03/19 00:58:12;;;;;;;11.13;2.97;;;3.90;99.90;;;;;;5055866;28;20299;-79
2021/03/19 01:00:39;;;;;;;13.00;3.10;;;3.90;99.90;;;;;;5068935;28;20203;-81
2021/03/19 01:03:07;;;;;;;20.50;3.07;;;3.80;99.90;;;;;;5055788;28;20292;-80
2021/03/19 01:05:36;;;;;;;14.80;2.80;;;3.80;99.90;;;;;;5055680;28;20209;-80
2021/03/19 01:08:03;;;;;;;12.57;2.40;;;3.80;99.90;;;;;;5055848;28;20205;-81
2021/03/19 01:10:32;;;;;;;11.37;2.57;;;3.80;99.90;;;;;;5055899;28;20292;-80
2021/03/19 01:12:59;;;;;;;11.17;2.67;;;3.80;99.90;;;;;;5056051;28;20248;-80
2021/03/19 01:15:26;;;;;;;17.87;2.80;;;3.80;99.90;;;;;;5055026;28;20233;-80
2021/03/19 01:17:53;;;;;;;6.87;2.50;;;3.70;99.90;;;;;;5055826;28;20213;-78
2021/03/19 01:20:22;;;;;;;9.73;2.30;;;3.70;99.90;;;;;;5055788;28;20248;-80
2021/03/19 01:22:48;;;;;;;12.07;2.63;;;3.60;99.90;;;;;;5055357;28;20268;-79
2021/03/19 01:25:17;;;;;;;23.57;3.10;;;3.60;99.90;;;;;;5055643;28;20289;-79
2021/03/19 01:27:44;;;;;;;9.53;2.40;;;3.50;99.90;;;;;;5055394;28;20238;-82
2021/03/19 01:30:14;;;;;;;14.73;2.90;;;3.40;99.90;;;;;;5055672;28;20339;-78
2021/03/19 01:32:41;;;;;;;9.63;2.30;;;3.40;99.90;;;;;;5055484;28;20280;-78
2021/03/19 01:35:09;;;;;;;10.77;2.37;;;3.40;99.90;;;;;;5055183;28;20579;-81
2021/03/19 01:37:36;;;;;;;7.63;2.27;;;3.40;99.90;;;;;;5054852;28;20316;-81
2021/03/19 01:40:04;;;;;;;14.53;2.60;;;3.30;99.90;;;;;;5055152;28;20224;-80
2021/03/19 01:42:30;;;;;;;10.27;3.10;;;3.20;99.90;;;;;;5055190;28;20290;-79
2021/03/19 01:45:39;;;;;;;6.60;2.30;;;3.30;99.90;;;;;;5054851;28;20613;-80
2021/03/19 01:48:43;;;;;;;14.23;2.43;;;3.30;99.90;;;;;;5068162;28;20205;-80
2021/03/19 01:51:46;;;;;;;14.10;2.40;;;3.20;99.90;;;;;;5045760;28;20693;-81
2021/03/19 01:54:50;;;;;;;10.47;2.50;;;3.20;99.90;;;;;;5048790;28;20247;-79
2021/03/19 01:57:53;;;;;;;10.47;2.70;;;3.20;99.90;;;;;;5055462;28;20575;-80
2021/03/19 02:00:57;;;;;;;10.03;2.53;;;3.30;99.90;;;;;;5054755;28;20243;-80
2021/03/19 02:04:01;;;;;;;14.63;3.40;;;3.40;99.90;;;;;;5054521;28;20670;-79
2021/03/19 02:07:04;;;;;;;8.03;2.70;;;3.40;99.90;;;;;;5045690;28;20240;-81
2021/03/19 02:10:07;;;;;;;14.83;3.10;;;3.30;99.90;;;;;;5054574;28;20206;-79
2021/03/19 02:13:11;;;;;;;11.80;3.17;;;3.30;99.90;;;;;;5054528;28;20228;-79
2021/03/19 02:16:14;;;;;;;10.33;2.80;;;3.10;99.90;;;;;;5061628;28;20200;-78
2021/03/19 02:19:18;;;;;;;14.13;3.30;;;3.10;99.90;;;;;;5054336;28;20298;-79
2021/03/19 02:22:23;;;;;;;6.73;3.00;;;3.00;99.90;;;;;;5045909;28;20213;-80
2021/03/19 02:25:27;;;;;;;10.80;3.37;;;3.00;99.90;;;;;;5030054;28;20292;-79
2021/03/19 02:28:30;;;;;;;11.77;3.60;;;3.00;99.90;;;;;;5054159;28;20240;-79
2021/03/19 02:31:12;;;;;;;12.87;3.13;;;3.00;99.90;;;;;;5053862;28;20236;-79
2021/03/19 02:33:50;;;;;;;12.87;3.13;;;2.90;99.90;;;;;;5054172;28;20239;-80
2021/03/19 02:36:19;;;;;;;8.63;3.17;;;3.00;99.90;;;;;;5053813;28;20689;-81
2021/03/19 02:38:46;;;;;;;16.20;3.40;;;2.90;99.90;;;;;;5054200;28;20292;-81
2021/03/19 02:41:12;;;;;;;15.37;3.37;;;3.00;99.90;;;;;;5065366;28;20230;-81
2021/03/19 02:43:38;;;;;;;11.77;3.50;;;3.10;99.90;;;;;;5068156;28;20291;-83
2021/03/19 02:46:05;;;;;;;11.63;3.40;;;3.10;99.90;;;;;;5053789;28;20629;-80
2021/03/19 02:48:32;;;;;;;15.20;3.70;;;3.30;99.90;;;;;;5053916;28;20592;-80
2021/03/19 02:50:59;;;;;;;13.07;3.60;;;3.30;99.90;;;;;;5054126;28;20287;-80
2021/03/19 02:53:27;;;;;;;11.40;3.13;;;3.30;99.90;;;;;;5053821;28;20210;-82
2021/03/19 02:55:55;;;;;;;7.90;3.03;;;3.30;99.90;;;;;;5053642;28;20258;-81
2021/03/19 02:58:21;;;;;;;11.30;3.93;;;3.30;99.90;;;;;;5053779;28;20212;-81
2021/03/19 03:00:48;;;;;;;12.73;3.43;;;3.30;99.90;;;;;;5053571;28;20236;-82
2021/03/19 03:03:15;;;;;;;12.70;3.57;;;3.30;99.90;;;;;;5053681;28;20200;-81
2021/03/19 03:05:42;;;;;;;15.43;3.97;;;3.30;99.90;;;;;;5053374;28;20202;-80
2021/03/19 03:08:11;;;;;;;14.33;3.77;;;3.20;99.90;;;;;;5053524;28;20293;-83
2021/03/19 03:10:39;;;;;;;10.47;4.37;;;3.10;99.90;;;;;;5053269;28;20228;-81
2021/03/19 03:13:07;;;;;;;14.73;4.20;;;3.00;99.90;;;;;;5053259;28;20284;-79
2021/03/19 03:15:34;;;;;;;10.27;3.77;;;2.90;99.90;;;;;;5053860;28;20211;-80
2021/03/19 03:18:01;;;;;;;12.37;3.90;;;2.90;99.90;;;;;;5053512;28;20361;-82
2021/03/19 03:20:29;;;;;;;12.80;4.50;;;2.80;99.90;;;;;;5053556;28;20205;-82
2021/03/19 03:22:55;;;;;;;12.57;4.90;;;2.70;99.90;;;;;;5039601;28;20251;-80
2021/03/19 03:25:24;;;;;;;13.37;5.03;;;2.60;99.90;;;;;;5053490;28;20281;-82
2021/03/19 03:27:51;;;;;;;13.47;5.37;;;2.60;99.90;;;;;;5052928;28;20722;-80
2021/03/19 03:30:22;;;;;;;8.63;4.37;;;2.60;99.90;;;;;;5053102;28;20204;-80
2021/03/19 03:32:48;;;;;;;11.40;4.90;;;2.60;99.90;;;;;;5053008;28;20293;-80
2021/03/19 03:35:16;;;;;;;11.60;5.07;;;2.60;99.90;;;;;;5052865;28;20284;-79
2021/03/19 03:37:43;;;;;;;13.90;6.23;;;2.50;99.90;;;;;;5052702;28;20231;-82
2021/03/19 03:40:15;;;;;;;11.97;5.50;;;2.50;99.90;;;;;;5053131;28;20288;-80
2021/03/19 03:42:42;;;;;;;20.53;5.90;;;2.50;99.90;;;;;;5052929;28;20300;-82
2021/03/19 03:45:11;;;;;;;13.97;6.00;;;2.50;99.90;;;;;;5052720;28;20201;-80
2021/03/19 03:47:38;;;;;;;12.80;6.63;;;2.50;99.90;;;;;;5052972;28;20201;-80
2021/03/19 03:50:07;;;;;;;14.93;5.57;;;2.50;99.90;;;;;;5052938;28;20251;-80
2021/03/19 03:52:34;;;;;;;16.93;6.43;;;2.50;99.90;;;;;;5053202;28;20197;-81
2021/03/19 03:55:00;;;;;;;15.17;5.23;;;2.50;99.90;;;;;;5052866;28;20291;-80
2021/03/19 03:57:26;;;;;;;15.47;6.07;;;2.40;99.90;;;;;;5050864;28;20278;-80
2021/03/19 03:59:54;;;;;;;13.87;7.07;;;2.40;99.90;;;;;;5052957;28;20271;-79
2021/03/19 04:02:23;;;;;;;11.77;6.13;;;2.40;99.90;;;;;;5052963;28;20284;-80
2021/03/19 04:04:50;;;;;;;11.30;6.30;;;2.40;99.90;;;;;;5052776;28;20207;-81
2021/03/19 04:07:17;;;;;;;15.73;6.47;;;2.30;99.90;;;;;;5052663;28;20618;-80
2021/03/19 04:09:44;;;;;;;17.27;6.13;;;2.40;99.90;;;;;;5053189;28;20289;-81
2021/03/19 04:12:11;;;;;;;12.77;5.60;;;2.40;99.90;;;;;;5052762;28;20201;-81
2021/03/19 04:14:38;;;;;;;21.27;6.70;;;2.30;99.90;;;;;;5052801;28;20288;-80
2021/03/19 04:17:08;;;;;;;13.37;7.07;;;2.30;99.90;;;;;;5052632;28;20257;-81
2021/03/19 04:19:35;;;;;;;17.80;7.37;;;2.30;99.90;;;;;;5052851;28;20665;-80
2021/03/19 04:22:01;;;;;;;15.63;7.30;;;2.30;99.90;;;;;;5053141;28;20739;-79
2021/03/19 04:24:28;;;;;;;18.93;7.17;;;2.30;99.90;;;;;;5052638;28;20240;-80
2021/03/19 04:26:54;;;;;;;17.40;7.03;;;2.30;99.90;;;;;;5052846;28;20292;-79
2021/03/19 04:29:21;;;;;;;17.57;6.93;;;2.30;99.90;;;;;;5052630;28;20229;-80
2021/03/19 04:31:47;;;;;;;17.43;7.30;;;2.30;99.90;;;;;;5052497;28;20626;-80
2021/03/19 04:34:14;;;;;;;14.17;7.03;;;2.30;99.90;;;;;;5052765;28;20229;-79
2021/03/19 04:36:44;;;;;;;13.90;7.03;;;2.30;99.90;;;;;;5054006;28;20267;-80
2021/03/19 04:39:14;;;;;;;20.80;7.80;;;2.20;99.90;;;;;;5054073;28;20215;-79
2021/03/19 04:41:43;;;;;;;17.77;7.50;;;2.10;99.90;;;;;;5053902;28;20216;-81
2021/03/19 04:44:10;;;;;;;20.83;7.80;;;2.10;99.90;;;;;;5053853;28;20237;-79
2021/03/19 04:46:36;;;;;;;11.03;6.50;;;2.10;99.90;;;;;;5060728;28;20254;-80
2021/03/19 04:49:03;;;;;;;12.80;8.50;;;2.00;99.90;;;;;;5055428;28;20254;-80
2021/03/19 04:51:30;;;;;;;16.53;7.97;;;2.10;99.90;;;;;;5057609;28;20295;-79
2021/03/19 04:53:57;;;;;;;15.97;8.03;;;2.10;99.90;;;;;;5057531;28;20672;-80
2021/03/19 04:56:24;;;;;;;13.80;8.03;;;2.10;99.90;;;;;;5072924;28;20236;-79
2021/03/19 04:58:51;;;;;;;16.53;8.60;;;2.00;99.90;;;;;;5081005;28;20196;-79
2021/03/19 05:01:18;;;;;;;14.37;8.90;;;2.00;99.90;;;;;;5080238;28;20210;-80
2021/03/19 05:03:45;;;;;;;19.30;8.77;;;2.00;99.90;;;;;;5080132;28;20216;-80
2021/03/19 05:06:13;;;;;;;17.23;8.90;;;1.90;99.90;;;;;;5080524;28;20215;-80
2021/03/19 05:08:41;;;;;;;19.03;9.63;;;1.90;99.90;;;;;;5077343;28;20215;-81
2021/03/19 05:11:07;;;;;;;17.37;9.70;;;1.90;99.90;;;;;;5079849;28;20201;-79
2021/03/19 05:13:33;;;;;;;21.63;9.67;;;1.90;99.90;;;;;;5077141;28;20225;-80
2021/03/19 05:16:00;;;;;;;19.17;10.03;;;1.80;99.90;;;;;;5064149;28;20237;-81
2021/03/19 05:18:26;;;;;;;16.73;8.80;;;1.90;99.90;;;;;;5056814;28;20201;-80
2021/03/19 05:20:53;;;;;;;19.10;11.93;;;1.90;99.90;;;;;;5055403;28;20539;-79
2021/03/19 05:23:22;;;;;;;22.83;11.47;;;1.90;99.90;;;;;;5055363;28;20292;-80
2021/03/19 05:25:50;;;;;;;19.63;10.80;;;1.80;99.90;;;;;;5054273;28;20651;-80
2021/03/19 05:28:17;;;;;;;20.00;10.93;;;1.80;99.90;;;;;;5052753;28;20262;-79
2021/03/19 05:30:44;;;;;;;20.23;10.70;;;1.80;99.90;;;;;;5054779;28;20228;-82
2021/03/19 05:33:10;;;;;;;19.73;10.53;;;1.80;99.90;;;;;;5055331;28;20673;-80
2021/03/19 05:35:37;;;;;;;23.27;11.10;;;1.70;99.90;;;;;;5054813;28;20250;-80
2021/03/19 05:38:04;;;;;;;19.13;11.73;;;1.70;99.90;;;;;;5054612;28;20235;-81
2021/03/19 05:40:37;;;;;;;23.03;10.47;;;1.70;99.90;;;;;;5055116;28;20287;-81
2021/03/19 05:43:27;;;;;;;21.37;11.50;;;1.70;99.90;;;;;;5054926;28;20298;-83
2021/03/19 05:45:55;;;;;;;18.53;10.53;;;1.60;99.90;;;;;;5054979;28;20224;-80
2021/03/19 05:48:22;;;;;;;21.93;12.03;;;1.60;99.90;;;;;;5051696;28;20246;-80
2021/03/19 05:50:49;;;;;;;24.07;11.73;;;1.70;99.90;;;;;;5054353;28;20220;-79
2021/03/19 05:53:18;;;;;;;22.27;12.43;;;1.60;99.90;;;;;;5053803;28;20290;-81
2021/03/19 05:55:45;;;;;;;24.37;12.97;;;1.60;99.90;;;;;;5054540;28;20209;-80
2021/03/19 05:58:23;;;;;;;23.37;11.70;;;1.60;99.90;;;;;;5047374;28;20239;-80
2021/03/19 06:00:53;;;;;;;21.83;11.67;;;1.60;99.90;;;;;;5051704;28;20205;-81
2021/03/19 06:03:20;;;;;;;22.57;12.50;;;1.60;99.90;;;;;;5054681;28;20322;-81
2021/03/19 06:05:58;;;;;;;24.33;12.87;;;1.60;99.90;;;;;;5053541;28;20296;-83
2021/03/19 06:08:30;;;;;;;22.00;12.93;;;1.60;99.90;;;;;;5053910;28;20292;-81
2021/03/19 06:11:10;;;;;;;25.43;12.10;;;1.60;99.90;;;;;;5051282;28;20200;-81
2021/03/19 06:13:57;;;;;;;29.25;16.77;;;1.60;99.90;;;;;;5052075;28;20535;-82
2021/03/19 06:16:35;;;;;;;28.13;13.73;;;1.60;99.90;;;;;;5052675;28;20243;-79
2021/03/19 06:19:04;;;;;;;30.33;12.73;;;1.60;99.90;;;;;;5053721;28;20299;-78
2021/03/19 06:21:33;;;;;;;29.80;12.93;;;1.60;99.90;;;;;;5053517;28;20280;-80
2021/03/19 06:24:04;;;;;;;26.13;12.80;;;1.60;99.90;;;;;;5052436;28;20287;-80
2021/03/19 06:26:34;;;;;;;25.60;12.33;;;1.70;99.90;;;;;;5051959;28;20289;-80
2021/03/19 06:29:24;;;;;;;19.60;12.00;;;1.70;99.90;;;;;;5047161;28;21326;-80
2021/03/19 06:32:11;;;;;;;21.73;12.00;;;1.70;99.90;;;;;;5042293;28;20193;-82
2021/03/19 06:34:52;;;;;;;22.83;12.37;;;1.80;99.90;;;;;;5043835;28;20235;-80
2021/03/19 06:37:27;;;;;;;22.63;11.67;;;1.80;99.90;;;;;;5045597;28;20248;-84
2021/03/19 06:39:55;;;;;;;22.03;11.60;;;1.90;99.90;;;;;;5042428;28;20587;-79
2021/03/19 06:42:38;;;;;;;23.83;11.07;;;1.90;99.90;;;;;;5051800;28;20364;-80
2021/03/19 06:45:18;;;;;;;22.37;11.43;;;1.90;99.90;;;;;;5053319;28;20634;-78
2021/03/19 06:47:48;;;;;;;17.97;9.43;;;2.00;99.90;;;;;;5053129;28;20193;-79
2021/03/19 06:50:34;;;;;;;16.33;9.23;;;1.90;99.90;;;;;;5040277;28;20339;-80
2021/03/19 06:53:16;;;;;;;20.97;10.23;;;2.00;99.90;;;;;;5038077;28;20197;-81
2021/03/19 06:55:45;;;;;;;20.40;9.93;;;2.00;99.90;;;;;;5053005;28;20220;-80
2021/03/19 06:58:12;;;;;;;19.90;10.03;;;2.10;99.90;;;;;;5053926;28;20249;-86
2021/03/19 07:00:42;;;;;;;18.40;9.50;;;2.10;99.90;;;;;;5047986;28;20221;-83
2021/03/19 07:03:23;;;;;;;15.60;9.13;;;2.20;99.90;;;;;;5049963;28;20258;-81
2021/03/19 07:06:20;;;;;;;15.07;8.67;;;2.20;99.90;;;;;;5035203;28;20225;-84
2021/03/19 07:08:54;;;;;;;16.50;9.50;;;2.20;99.90;;;;;;5033550;28;20213;-81
2021/03/19 07:11:47;;;;;;;15.80;9.07;;;2.40;99.90;;;;;;5033043;28;20208;-83
2021/03/19 07:14:55;;;;;;;15.10;8.57;;;2.40;99.90;;;;;;5033493;28;20206;-83
2021/03/19 07:17:41;;;;;;;13.83;7.83;;;2.50;99.90;;;;;;5033288;28;20228;-82
2021/03/19 07:20:20;;;;;;;11.17;6.57;;;2.50;99.90;;;;;;5033133;28;20208;-82
2021/03/19 07:22:59;;;;;;;14.27;7.17;;;2.50;99.90;;;;;;5033419;28;20297;-83
2021/03/19 07:25:46;;;;;;;14.63;8.30;;;2.50;99.90;;;;;;5032890;28;20289;-83
2021/03/19 07:29:03;;;;;;;11.97;6.20;;;2.60;99.90;;;;;;5031286;28;20207;-82
2021/03/19 07:31:51;;;;;;;8.13;5.13;;;2.80;99.90;;;;;;5013390;28;20214;-81
2021/03/19 07:34:44;;;;;;;9.33;5.50;;;2.70;99.90;;;;;;5041730;28;20205;-82
2021/03/19 07:37:19;;;;;;;8.53;5.53;;;2.80;99.90;;;;;;5053085;28;20220;-82
2021/03/19 07:40:08;;;;;;;11.97;5.63;;;2.80;99.90;;;;;;5053490;28;20284;-81
2021/03/19 07:42:57;;;;;;;8.03;5.37;;;3.00;99.90;;;;;;5052569;28;20236;-83
2021/03/19 07:45:28;;;;;;;9.13;5.60;;;3.00;99.90;;;;;;5040182;28;20240;-82
2021/03/19 07:48:24;;;;;;;12.37;4.93;;;3.10;99.90;;;;;;5043558;28;20203;-83
2021/03/19 07:51:19;;;;;;;9.63;5.03;;;3.10;99.90;;;;;;5033113;28;20663;-85
2021/03/19 07:53:56;;;;;;;7.80;4.60;;;3.20;99.90;;;;;;5033712;28;20249;-86
2021/03/19 07:56:42;;;;;;;8.93;5.23;;;3.20;99.90;;;;;;5034561;28;20205;-83
2021/03/19 07:59:19;;;;;;;11.03;5.13;;;3.40;99.90;;;;;;5034745;28;20200;-83
2021/03/19 08:01:56;;;;;;;9.63;4.40;;;3.50;99.90;;;;;;5033360;28;20284;-82
2021/03/19 08:04:36;;;;;;;10.80;4.80;;;3.60;99.90;;;;;;5033566;28;20209;-82
2021/03/19 08:07:24;;;;;;;7.00;4.23;;;3.60;99.90;;;;;;5033887;28;20641;-83
2021/03/19 08:10:01;;;;;;;8.03;4.57;;;3.60;99.90;;;;;;5033002;28;20289;-84
2021/03/19 08:12:35;;;;;;;6.80;4.07;;;3.80;99.90;;;;;;5032932;28;20198;-83
2021/03/19 08:15:14;;;;;;;7.17;3.93;;;3.90;99.90;;;;;;5047306;28;20263;-83
2021/03/19 08:17:57;;;;;;;4.53;3.63;;;3.90;99.90;;;;;;5053017;28;20229;-84
2021/03/19 08:20:33;;;;;;;8.03;4.03;;;4.10;99.90;;;;;;5053240;28;20244;-83
2021/03/19 08:23:08;;;;;;;10.03;4.50;;;4.00;99.90;;;;;;5052987;28;20194;-83
2021/03/19 08:25:39;;;;;;;6.70;3.50;;;4.00;99.90;;;;;;5057115;28;20343;-83
2021/03/19 08:28:14;;;;;;;7.33;3.70;;;4.00;99.90;;;;;;5058328;28;20198;-84
2021/03/19 08:30:49;;;;;;;6.97;4.10;;;4.10;99.90;;;;;;5057150;28;20285;-83
2021/03/19 08:33:24;;;;;;;4.87;3.23;;;4.20;99.90;;;;;;5055745;28;20208;-87
2021/03/19 08:36:00;;;;;;;5.43;3.40;;;4.30;99.90;;;;;;5059902;28;20192;-83
2021/03/19 08:38:34;;;;;;;6.93;3.60;;;4.40;99.90;;;;;;5060085;28;20279;-85
2021/03/19 08:41:05;;;;;;;7.17;3.40;;;4.40;99.90;;;;;;5060760;28;20194;-82
2021/03/19 08:43:37;;;;;;;4.87;2.97;;;4.50;99.90;;;;;;5039308;28;20587;-83
2021/03/19 08:46:09;;;;;;;7.57;3.10;;;4.50;99.90;;;;;;5044807;28;20738;-83
2021/03/19 08:48:47;;;;;;;5.27;3.00;;;4.50;99.90;;;;;;5057683;28;20294;-83
2021/03/19 08:51:23;;;;;;;7.30;3.37;;;4.50;99.90;;;;;;5054537;28;20210;-82
2021/03/19 08:54:20;;;;;;;7.57;3.30;;;4.60;99.90;;;;;;5056909;28;20198;-85
2021/03/19 08:56:48;;;;;;;5.70;3.17;;;4.70;99.90;;;;;;5070790;28;20249;-83
2021/03/19 09:00:00;;;;;;;7.60;3.30;;;4.70;99.90;;;;;;5059879;28;20239;-83
2021/03/19 09:02:53;;;;;;;5.30;3.43;;;4.80;99.90;;;;;;5009369;28;20310;-82
2021/03/19 09:05:33;;;;;;;5.23;2.97;;;4.90;99.90;;;;;;5037502;28;20201;-80
2021/03/19 09:08:23;;;;;;;7.60;3.20;;;5.00;99.90;;;;;;5056477;28;20205;-82
2021/03/19 09:11:11;;;;;;;7.70;3.20;;;5.00;99.90;;;;;;5056604;28;20212;-84
2021/03/19 09:13:53;;;;;;;5.37;3.10;;;5.10;99.90;;;;;;5056155;28;20315;-86
2021/03/19 09:16:44;;;;;;;5.50;2.63;;;5.10;99.90;;;;;;5055574;28;20680;-84
2021/03/19 09:19:40;;;;;;;4.50;3.00;;;5.20;99.90;;;;;;5050296;28;20279;-81
2021/03/19 09:22:43;;;;;;;6.00;2.90;;;5.20;99.90;;;;;;5034541;28;20259;-84
2021/03/19 09:25:34;;;;;;;7.93;2.73;;;5.30;99.90;;;;;;5037476;28;20203;-84
2021/03/19 09:28:28;;;;;;;4.90;2.47;;;5.30;99.90;;;;;;5053486;28;20342;-82
2021/03/19 09:30:58;;;;;;;7.50;2.90;;;5.50;99.90;;;;;;5050427;28;20255;-82
2021/03/19 09:34:01;;;;;;;5.93;3.00;;;5.50;99.90;;;;;;5055850;28;20233;-82
2021/03/19 09:37:05;;;;;;;3.60;1.73;;;5.70;99.90;;;;;;5038241;28;20213;-81
2021/03/19 09:40:14;;;;;;;3.07;2.00;;;5.60;99.90;;;;;;5038154;28;20737;-80
2021/03/19 09:42:53;;;;;;;5.17;2.40;;;5.60;99.90;;;;;;5038449;28;20202;-79
2021/03/19 09:45:37;;;;;;;3.90;2.27;;;5.70;99.90;;;;;;5036900;28;20233;-80
2021/03/19 09:48:27;;;;;;;3.73;1.90;;;5.90;99.90;;;;;;5027573;28;20205;-81
2021/03/19 09:51:17;;;;;;;3.43;2.10;;;6.00;99.90;;;;;;5035079;28;20224;-81
2021/03/19 09:53:44;;;;;;;4.70;2.00;;;6.10;99.90;;;;;;5035186;28;20222;-80
2021/03/19 09:56:21;;;;;;;3.97;1.87;;;6.20;99.90;;;;;;5034837;28;20204;-80
2021/03/19 09:58:50;;;;;;;2.90;1.60;;;6.40;99.90;;;;;;5035191;28;20287;-79
2021/03/19 10:01:32;;;;;;;5.83;1.40;;;6.50;99.90;;;;;;5035324;28;20248;-81
2021/03/19 10:04:01;;;;;;;3.07;1.33;;;6.60;99.90;;;;;;5049209;28;20203;-82
2021/03/19 10:06:31;;;;;;;2.77;1.60;;;6.40;99.90;;;;;;5054876;28;20212;-80
2021/03/19 10:09:19;;;;;;;2.17;1.47;;;6.30;99.90;;;;;;5054887;28;20201;-79
2021/03/19 10:12:03;;;;;;;4.27;1.40;;;6.40;99.90;;;;;;5054479;28;20571;-80
2021/03/19 10:14:33;;;;;;;3.40;1.27;;;6.50;99.90;;;;;;5054487;28;20205;-81
2021/03/19 10:17:11;;;;;;;3.40;1.17;;;6.60;99.90;;;;;;5054306;28;20310;-81
2021/03/19 10:19:40;;;;;;;3.17;1.30;;;6.70;99.90;;;;;;5054997;28;20663;-81
2021/03/19 10:22:09;;;;;;;4.37;1.20;;;6.80;99.90;;;;;;5054541;28;20261;-82
2021/03/19 10:24:37;;;;;;;2.37;1.17;;;6.80;99.90;;;;;;5054419;28;20542;-81
2021/03/19 10:27:13;;;;;;;2.30;1.17;;;7.10;99.90;;;;;;5054175;28;20574;-81
2021/03/19 10:29:42;;;;;;;1.57;1.00;;;7.90;99.90;;;;;;5054038;28;20197;-81
2021/03/19 10:32:13;;;;;;;2.33;1.43;;;8.70;99.90;;;;;;5033895;28;20315;-82
2021/03/19 10:34:48;;;;;;;2.83;1.23;;;9.30;99.90;;;;;;5034257;28;20653;-81
2021/03/19 10:37:27;;;;;;;4.07;1.50;;;9.70;99.90;;;;;;5034407;28;20228;-81
2021/03/19 10:39:58;;;;;;;2.00;1.80;;;10.00;99.90;;;;;;5037382;28;20205;-81
2021/03/19 10:42:31;;;;;;;4.20;1.73;;;9.90;99.90;;;;;;5048779;28;20292;-81
2021/03/19 10:45:16;;;;;;;2.23;1.60;;;9.70;99.90;;;;;;5050725;28;20226;-80
2021/03/19 10:47:50;;;;;;;3.97;1.60;;;9.70;99.90;;;;;;5053448;28;20598;-80
2021/03/19 10:50:22;;;;;;;2.67;1.60;;;10.10;99.90;;;;;;5053892;28;20233;-80
2021/03/19 10:53:02;;;;;;;3.67;1.57;;;9.90;99.90;;;;;;5053212;28;20241;-82
2021/03/19 10:55:31;;;;;;;4.27;2.07;;;10.00;99.90;;;;;;5051608;28;20287;-80
2021/03/19 10:58:33;;;;;;;2.67;1.80;;;10.50;99.90;;;;;;5045351;28;20226;-81
2021/03/19 11:01:00;;;;;;;2.77;1.60;;;10.00;99.90;;;;;;5046840;28;20206;-81
2021/03/19 11:03:39;;;;;;;3.67;1.67;;;9.70;99.90;;;;;;5057552;28;20209;-81
2021/03/19 11:06:08;;;;;;;5.63;1.97;;;9.90;99.90;;;;;;5064489;28;20201;-81
2021/03/19 11:08:35;;;;;;;1.97;1.20;;;9.80;99.90;;;;;;5061081;28;20206;-80
2021/03/19 11:11:02;;;;;;;3.43;1.60;;;10.10;99.90;;;;;;5058821;28;20293;-80
2021/03/19 11:13:31;;;;;;;2.83;1.30;;;10.10;99.90;;;;;;5061667;28;20256;-81
2021/03/19 11:16:00;;;;;;;1.47;1.20;;;9.80;99.90;;;;;;5063445;28;20336;-81
2021/03/19 11:18:31;;;;;;;2.33;1.50;;;10.10;99.90;;;;;;5059153;28;20279;-82
2021/03/19 11:21:04;;;;;;;5.37;1.67;;;10.40;99.90;;;;;;5060982;28;20201;-80
2021/03/19 11:23:35;;;;;;;3.80;1.90;;;10.20;99.90;;;;;;5053923;28;20216;-81
2021/03/19 11:26:18;;;;;;;4.47;1.83;;;10.30;99.90;;;;;;5054299;28;20198;-81
2021/03/19 11:28:48;;;;;;;2.63;1.60;;;10.30;99.90;;;;;;5055258;28;20198;-82
2021/03/19 11:31:32;;;;;;;5.03;1.63;;;10.50;99.90;;;;;;5053357;28;20207;-81
2021/03/19 11:34:07;;;;;;;5.77;1.70;;;10.20;99.90;;;;;;5053337;28;20212;-82
2021/03/19 11:36:57;;;;;;;3.57;1.90;;;10.10;99.90;;;;;;5052529;28;20680;-81
2021/03/19 11:39:35;;;;;;;3.07;1.80;;;10.30;99.90;;;;;;5053557;28;20197;-81
2021/03/19 11:42:04;;;;;;;3.27;1.60;;;10.30;99.90;;;;;;5053713;28;20297;-82
2021/03/19 11:44:31;;;;;;;4.50;2.27;;;10.40;99.90;;;;;;5053487;28;20221;-81
2021/03/19 11:47:00;;;;;;;3.93;1.60;;;10.20;99.90;;;;;;5053189;28;20217;-81
2021/03/19 11:49:26;;;;;;;6.10;1.97;;;10.10;99.90;;;;;;5051533;28;20272;-83
2021/03/19 11:51:55;;;;;;;8.07;1.90;;;9.70;99.90;;;;;;5034040;28;20281;-82
2021/03/19 11:54:23;;;;;;;2.27;1.50;;;9.40;99.90;;;;;;5053168;28;20669;-83
2021/03/19 11:56:49;;;;;;;2.60;1.50;;;9.40;99.90;;;;;;5053319;28;20294;-82
2021/03/19 11:59:16;;;;;;;4.40;2.07;;;9.70;99.90;;;;;;5051991;28;20291;-82
2021/03/19 12:01:44;;;;;;;5.57;1.70;;;10.10;99.90;;;;;;5062488;28;20217;-84
2021/03/19 12:04:19;;;;;;;2.57;1.60;;;9.90;99.90;;;;;;5052517;28;20204;-86
2021/03/19 12:06:47;;;;;;;3.30;1.50;;;9.80;99.90;;;;;;5052417;28;20203;-86
2021/03/19 12:09:14;;;;;;;3.50;1.60;;;9.70;99.90;;;;;;5052945;28;20677;-82
2021/03/19 12:11:42;;;;;;;3.33;1.90;;;9.60;99.90;;;;;;5052996;28;20210;-85
2021/03/19 12:14:17;;;;;;;2.67;1.27;;;9.20;99.90;;;;;;5054941;28;20192;-84
2021/03/19 12:16:44;;;;;;;4.77;1.90;;;9.00;99.90;;;;;;5076715;28;20232;-82
2021/03/19 12:19:10;;;;;;;2.97;1.57;;;8.70;99.90;;;;;;5057067;28;20204;-83
2021/03/19 12:21:37;;;;;;;3.60;1.87;;;9.10;99.90;;;;;;5052957;28;20206;-84
2021/03/19 12:24:04;;;;;;;2.47;1.53;;;9.50;99.90;;;;;;5052635;28;20193;-81
2021/03/19 12:26:31;;;;;;;4.83;1.80;;;9.40;99.90;;;;;;5052960;28;20209;-86
2021/03/19 12:28:57;;;;;;;5.30;2.00;;;9.20;99.90;;;;;;5052787;28;20210;-85
2021/03/19 12:31:24;;;;;;;6.40;1.87;;;9.00;99.90;;;;;;5052798;28;20196;-85
2021/03/19 12:33:50;;;;;;;5.10;1.60;;;9.10;99.90;;;;;;5052971;28;20656;-85
2021/03/19 12:36:16;;;;;;;1.97;1.30;;;9.10;99.90;;;;;;5053652;28;20718;-86
2021/03/19 12:38:43;;;;;;;2.30;1.43;;;9.30;99.90;;;;;;5053000;28;20673;-85
2021/03/19 12:41:10;;;;;;;4.83;1.87;;;9.50;99.90;;;;;;5053271;28;20249;-83
2021/03/19 12:43:40;;;;;;;2.30;1.77;;;9.50;99.90;;;;;;5053112;28;20309;-83
2021/03/19 12:46:07;;;;;;;2.57;1.70;;;9.30;99.90;;;;;;5053528;28;20206;-85
2021/03/19 12:48:34;;;;;;;3.30;1.40;;;9.20;99.90;;;;;;5053806;28;20207;-85
2021/03/19 12:51:01;;;;;;;4.73;1.63;;;9.20;99.90;;;;;;5053426;28;20292;-85
2021/03/19 12:53:30;;;;;;;5.23;1.70;;;8.80;99.90;;;;;;5053147;28;20289;-85
2021/03/19 12:55:56;;;;;;;3.97;1.50;;;8.80;99.90;;;;;;5053222;28;20572;-85
2021/03/19 12:58:23;;;;;;;2.27;1.30;;;9.20;99.90;;;;;;5052577;28;20229;-86
2021/03/19 13:00:51;;;;;;;1.37;1.00;;;9.40;99.90;;;;;;5053212;28;20210;-85
2021/03/19 13:03:18;;;;;;;2.40;1.40;;;9.20;99.90;;;;;;5052806;28;20198;-83
2021/03/19 13:05:44;;;;;;;1.93;1.23;;;9.00;99.90;;;;;;5053266;28;20203;-86
2021/03/19 13:08:12;;;;;;;2.07;1.40;;;9.10;99.90;;;;;;5054307;28;20202;-85
2021/03/19 13:10:40;;;;;;;3.43;1.70;;;9.10;99.90;;;;;;5055933;28;20222;-85
2021/03/19 13:13:07;;;;;;;2.60;1.50;;;9.20;99.90;;;;;;5056754;28;20275;-85
2021/03/19 13:15:35;;;;;;;4.33;1.87;;;9.30;99.90;;;;;;5057427;28;20199;-84
2021/03/19 13:18:05;;;;;;;2.03;1.60;;;9.30;99.90;;;;;;5057430;28;20667;-84
2021/03/19 13:20:34;;;;;;;2.33;1.40;;;9.40;99.90;;;;;;5058634;28;20616;-85
2021/03/19 13:23:01;;;;;;;3.30;1.47;;;9.30;99.90;;;;;;5061119;28;20208;-83
2021/03/19 13:25:31;;;;;;;2.07;1.20;;;9.30;99.90;;;;;;5055958;28;20233;-83
2021/03/19 13:28:00;;;;;;;3.73;1.70;;;9.60;99.90;;;;;;5060902;28;20215;-84